createdAt,value
2022-08-29T00:01:25.031Z,7.50
2022-08-29T00:05:39.836Z,4.90
2022-08-29T00:10:08.612Z,6.27
2022-08-29T00:14:23.625Z,8.17
2022-08-29T00:18:33.998Z,6.20
2022-08-29T00:22:43.819Z,7.63
2022-08-29T00:26:55.802Z,5.87
2022-08-29T00:31:06.064Z,5.20
2022-08-29T00:35:18.970Z,6.40
2022-08-29T00:39:28.486Z,8.43
2022-08-29T00:43:53.839Z,7.10
2022-08-29T00:48:09.871Z,6.53
2022-08-29T00:52:27.101Z,5.53
2022-08-29T00:56:38.778Z,4.90
2022-08-29T01:00:52.667Z,5.43
2022-08-29T01:05:02.500Z,5.63
2022-08-29T01:09:12.874Z,7.07
2022-08-29T01:13:24.721Z,5.90
2022-08-29T01:17:38.573Z,5.40
2022-08-29T01:21:58.223Z,6.00
2022-08-29T01:26:11.910Z,4.57
2022-08-29T01:30:21.923Z,6.13
2022-08-29T01:34:31.849Z,6.60
2022-08-29T01:38:42.031Z,6.17
2022-08-29T01:42:53.316Z,5.83
2022-08-29T01:47:03.566Z,6.53
2022-08-29T01:51:13.929Z,7.97
2022-08-29T01:55:23.675Z,7.03
2022-08-29T01:59:36.523Z,5.93
2022-08-29T02:03:46.585Z,5.80
2022-08-29T02:07:56.274Z,6.87
2022-08-29T02:12:07.731Z,5.90
2022-08-29T02:16:19.189Z,6.20
2022-08-29T02:20:28.629Z,4.57
2022-08-29T02:24:38.073Z,4.33
2022-08-29T02:28:47.700Z,6.13
2022-08-29T02:32:58.793Z,5.80
2022-08-29T02:37:09.015Z,8.13
2022-08-29T02:41:18.639Z,5.70
2022-08-29T02:45:28.192Z,7.93
2022-08-29T02:49:40.295Z,6.77
2022-08-29T02:53:51.150Z,7.87
2022-08-29T02:58:00.918Z,6.43
2022-08-29T03:02:10.428Z,6.23
2022-08-29T03:06:22.818Z,5.87
2022-08-29T03:10:32.473Z,7.53
2022-08-29T03:14:42.351Z,7.50
2022-08-29T03:18:51.736Z,7.37
2022-08-29T03:23:02.911Z,5.30
2022-08-29T03:27:12.464Z,5.50
2022-08-29T03:31:21.988Z,6.50
2022-08-29T03:35:31.674Z,7.17
2022-08-29T03:39:42.709Z,6.30
2022-08-29T03:43:53.168Z,6.43
2022-08-29T03:48:02.814Z,6.73
2022-08-29T03:52:12.690Z,7.70
2022-08-29T03:56:23.921Z,12.10
2022-08-29T04:00:34.263Z,5.77
2022-08-29T04:05:04.701Z,8.43
2022-08-29T04:09:18.955Z,6.07
2022-08-29T04:13:30.169Z,10.43
2022-08-29T04:17:52.927Z,5.43
2022-08-29T04:22:08.724Z,5.80
2022-08-29T04:26:37.445Z,7.37
2022-08-29T04:30:51.908Z,6.47
2022-08-29T04:35:02.620Z,6.03
2022-08-29T04:39:13.154Z,5.17
2022-08-29T04:43:23.035Z,5.30
2022-08-29T04:47:33.991Z,5.53
2022-08-29T04:51:43.566Z,7.07
2022-08-29T04:55:59.336Z,6.17
2022-08-29T05:00:12.841Z,5.00
2022-08-29T05:04:24.149Z,4.93
2022-08-29T05:08:33.693Z,4.80
2022-08-29T05:12:43.735Z,5.13
2022-08-29T05:16:53.331Z,6.90
2022-08-29T05:21:05.615Z,7.40
2022-08-29T05:25:18.451Z,10.30
2022-08-29T05:29:29.785Z,6.20
2022-08-29T05:33:39.441Z,5.63
2022-08-29T05:37:50.473Z,5.53
2022-08-29T05:42:01.280Z,5.30
2022-08-29T05:46:11.896Z,5.87
2022-08-29T05:50:21.547Z,4.47
2022-08-29T05:54:35.769Z,4.90
2022-08-29T05:58:45.158Z,6.83
2022-08-29T06:02:55.240Z,4.17
2022-08-29T06:07:05.388Z,5.77
2022-08-29T06:11:19.126Z,7.47
2022-08-29T06:15:30.265Z,5.73
2022-08-29T06:19:40.148Z,7.90
2022-08-29T06:23:50.564Z,6.30
2022-08-29T06:28:01.620Z,5.20
2022-08-29T06:32:12.183Z,5.67
2022-08-29T06:36:22.061Z,5.83
2022-08-29T06:40:31.618Z,4.70
2022-08-29T06:44:44.591Z,5.13
2022-08-29T06:48:55.391Z,5.60
2022-08-29T06:53:26.453Z,7.40
2022-08-29T06:57:37.625Z,8.57
2022-08-29T07:01:49.753Z,4.87
2022-08-29T07:05:59.826Z,6.37
2022-08-29T07:10:40.210Z,6.43
2022-08-29T07:14:49.824Z,5.33
2022-08-29T07:19:06.259Z,5.97
2022-08-29T07:23:15.869Z,5.17
2022-08-29T07:27:27.197Z,6.03
2022-08-29T07:31:36.876Z,5.63
2022-08-29T07:35:48.056Z,3.43
2022-08-29T07:39:58.903Z,4.03
2022-08-29T07:44:10.432Z,3.10
2022-08-29T07:48:22.935Z,4.70
2022-08-29T07:52:35.374Z,5.80
2022-08-29T07:56:45.653Z,5.70
2022-08-29T08:00:55.293Z,5.80
2022-08-29T08:05:06.820Z,4.20
2022-08-29T08:09:17.992Z,4.37
2022-08-29T08:13:28.452Z,3.93
2022-08-29T08:17:42.061Z,3.53
2022-08-29T08:21:53.571Z,8.43
2022-08-29T08:26:30.456Z,4.03
2022-08-29T08:30:46.743Z,6.97
2022-08-29T08:34:57.497Z,3.67
2022-08-29T08:39:08.032Z,5.80
2022-08-29T08:43:26.812Z,3.57
2022-08-29T08:47:48.273Z,4.43
2022-08-29T08:58:27.249Z,4.73
2022-08-29T09:08:36.534Z,6.93
2022-08-29T09:23:33.793Z,3.93
2022-08-29T09:27:53.455Z,4.73
2022-08-29T09:32:50.514Z,3.23
2022-08-29T09:37:01.154Z,4.23
2022-08-29T09:41:12.314Z,2.80
2022-08-29T09:45:25.613Z,3.60
2022-08-29T09:49:52.714Z,5.30
2022-08-29T09:54:47.595Z,4.10
2022-08-29T09:59:05.792Z,4.17
2022-08-29T10:03:28.592Z,3.87
2022-08-29T10:08:26.393Z,5.17
2022-08-29T10:12:51.092Z,4.53
2022-08-29T10:17:17.533Z,4.70
2022-08-29T10:21:38.553Z,3.00
2022-08-29T10:25:49.444Z,3.27
2022-08-29T10:30:07.362Z,5.33
2022-08-29T10:34:31.852Z,4.70
2022-08-29T10:38:48.293Z,3.63
2022-08-29T10:43:33.734Z,5.43
2022-08-29T10:47:49.592Z,3.27
2022-08-29T10:52:07.011Z,4.27
2022-08-29T10:56:23.954Z,3.40
2022-08-29T11:00:44.181Z,3.80
2022-08-29T11:04:58.452Z,3.03
2022-08-29T11:09:19.773Z,2.90
2022-08-29T11:13:36.333Z,4.43
2022-08-29T11:17:51.991Z,3.20
2022-08-29T11:22:07.232Z,3.63
2022-08-29T11:26:29.433Z,3.73
2022-08-29T11:30:48.210Z,4.77
2022-08-29T11:35:09.794Z,3.63
2022-08-29T11:39:45.654Z,3.97
2022-08-29T11:44:04.294Z,4.23
2022-08-29T11:48:32.412Z,3.20
2022-08-29T11:52:53.194Z,3.77
2022-08-29T11:57:35.812Z,4.50
2022-08-29T12:02:00.861Z,3.67
2022-08-29T12:06:20.573Z,4.87
2022-08-29T12:10:59.452Z,3.93
2022-08-29T12:15:49.187Z,3.27
2022-08-29T12:20:17.453Z,3.73
2022-08-29T12:24:57.536Z,3.70
2022-08-29T12:29:10.636Z,3.43
2022-08-29T12:33:33.173Z,4.07
2022-08-29T12:37:59.893Z,3.13
2022-08-29T12:42:22.952Z,4.00
2022-08-29T12:46:38.095Z,3.50
2022-08-29T12:50:49.292Z,5.43
2022-08-29T12:55:00.612Z,4.03
2022-08-29T12:59:18.272Z,3.63
2022-08-29T13:03:29.173Z,4.10
2022-08-29T13:07:38.514Z,6.20
2022-08-29T13:11:47.912Z,4.80
2022-08-29T13:16:01.811Z,3.37
2022-08-29T13:21:00.076Z,5.43
2022-08-29T13:25:11.293Z,4.90
2022-08-29T13:34:05.014Z,3.27
2022-08-29T13:38:32.212Z,3.10
2022-08-29T13:48:02.772Z,4.90
2022-08-29T14:21:43.852Z,3.67
2022-08-29T14:25:53.713Z,6.32
2022-08-29T14:30:03.192Z,3.45
2022-08-29T14:34:15.232Z,4.82
2022-08-29T14:38:27.993Z,3.10
2022-08-29T14:42:37.593Z,6.57
2022-08-29T14:46:48.910Z,5.95
2022-08-29T14:50:58.393Z,3.63
2022-08-29T14:55:10.792Z,2.90
2022-08-29T14:59:20.892Z,3.20
2022-08-29T15:03:30.372Z,2.90
2022-08-29T15:07:40.136Z,5.38
2022-08-29T15:11:50.932Z,3.58
2022-08-29T15:16:01.558Z,4.00
2022-08-29T15:20:35.713Z,3.50
2022-08-29T15:24:41.512Z,5.72
2022-08-29T15:28:52.294Z,3.33
2022-08-29T15:33:01.554Z,4.72
2022-08-29T15:37:12.414Z,2.80
2022-08-29T15:41:21.633Z,3.58
2022-08-29T15:45:32.391Z,4.18
2022-08-29T15:49:41.674Z,3.50
2022-08-29T15:53:50.832Z,4.35
2022-08-29T15:58:00.133Z,3.67
2022-08-29T16:02:11.640Z,6.28
2022-08-29T16:06:21.434Z,3.95
2022-08-29T16:10:35.035Z,3.72
2022-08-29T16:15:01.168Z,3.97
2022-08-29T16:19:13.414Z,3.28
2022-08-29T16:23:22.793Z,3.50
2022-08-29T16:27:32.711Z,4.03
2022-08-29T16:31:42.313Z,3.25
2022-08-29T16:35:53.131Z,3.83
2022-08-29T16:40:04.483Z,3.45
2022-08-29T16:44:13.875Z,4.85
2022-08-29T16:48:23.333Z,3.92
2022-08-29T16:52:34.753Z,4.00
2022-08-29T16:56:44.974Z,3.90
2022-08-29T17:00:54.534Z,4.22
2022-08-29T17:05:03.925Z,4.57
2022-08-29T17:09:13.387Z,4.65
2022-08-29T17:13:21.287Z,3.78
2022-08-29T17:17:30.549Z,3.73
2022-08-29T17:21:40.326Z,5.10
2022-08-29T17:25:51.207Z,4.23
2022-08-29T17:30:00.728Z,3.47
2022-08-29T17:34:10.670Z,3.50
2022-08-29T17:38:20.227Z,3.93
2022-08-29T17:42:31.065Z,4.77
2022-08-29T17:46:42.688Z,3.73
2022-08-29T17:50:53.040Z,4.07
2022-08-29T17:55:07.171Z,4.67
2022-08-29T17:59:20.360Z,2.97
2022-08-29T18:03:31.262Z,5.27
2022-08-29T18:07:41.182Z,4.30
2022-08-29T18:11:52.981Z,4.27
2022-08-29T18:16:04.202Z,4.03
2022-08-29T18:20:19.761Z,3.60
2022-08-29T18:24:29.101Z,5.00
2022-08-29T18:28:38.543Z,4.07
2022-08-29T18:32:49.603Z,5.60
2022-08-29T18:36:58.841Z,4.87
2022-08-29T18:41:08.282Z,6.00
2022-08-29T18:45:17.661Z,6.47
2022-08-29T18:49:42.306Z,4.70
2022-08-29T18:53:51.801Z,5.33
2022-08-29T18:58:01.320Z,5.33
2022-08-29T19:02:12.274Z,5.67
2022-08-29T19:06:26.208Z,5.70
2022-08-29T19:10:35.581Z,4.47
2022-08-29T19:14:46.532Z,7.20
2022-08-29T19:18:55.663Z,5.07
2022-08-29T19:23:06.722Z,4.13
2022-08-29T19:27:39.728Z,5.17
2022-08-29T19:31:46.656Z,3.80
2022-08-29T19:35:56.623Z,4.90
2022-08-29T19:40:08.970Z,7.13
2022-08-29T19:44:18.188Z,6.23
2022-08-29T19:48:27.708Z,6.60
2022-08-29T19:52:37.310Z,5.13
2022-08-29T19:56:48.048Z,6.10
2022-08-29T20:00:57.130Z,8.77
2022-08-29T20:05:07.391Z,7.30
2022-08-29T20:09:17.411Z,6.97
2022-08-29T20:13:32.824Z,6.50
2022-08-29T20:17:45.168Z,4.70
2022-08-29T20:21:54.650Z,8.17
2022-08-29T20:26:04.651Z,6.47
2022-08-29T20:30:19.411Z,6.73
2022-08-29T20:34:30.950Z,6.90
2022-08-29T20:38:40.212Z,10.70
2022-08-29T20:42:49.411Z,7.30
2022-08-29T20:47:00.429Z,7.27
2022-08-29T20:51:12.130Z,5.93
2022-08-29T20:55:23.290Z,6.07
2022-08-29T20:59:34.481Z,6.20
2022-08-29T21:04:02.549Z,6.63
2022-08-29T21:08:13.871Z,7.47
2022-08-29T21:12:27.546Z,6.50
2022-08-29T21:16:37.672Z,7.27
2022-08-29T21:20:54.207Z,5.73
2022-08-29T21:25:03.789Z,8.93
2022-08-29T21:29:13.210Z,9.00
2022-08-29T21:33:23.592Z,8.47
2022-08-29T21:37:34.490Z,6.33
2022-08-29T21:41:46.250Z,7.23
2022-08-29T21:45:55.530Z,9.10
2022-08-29T21:50:05.250Z,7.03
2022-08-29T21:54:18.730Z,8.07
2022-08-29T21:58:27.969Z,5.50
2022-08-29T22:02:37.404Z,11.20
2022-08-29T22:06:52.773Z,7.03
2022-08-29T22:11:12.948Z,7.63
2022-08-29T22:15:39.747Z,9.00
2022-08-29T22:19:48.990Z,7.20
2022-08-29T22:23:58.832Z,12.73
2022-08-29T22:28:10.829Z,7.67
2022-08-29T22:32:20.088Z,9.63
2022-08-29T22:36:29.710Z,5.80
2022-08-29T22:40:39.123Z,9.23
2022-08-29T22:45:05.120Z,7.67
2022-08-29T22:49:15.530Z,7.27
2022-08-29T22:53:24.788Z,7.53
2022-08-29T22:57:34.111Z,7.53
2022-08-29T23:01:46.348Z,8.53
2022-08-29T23:05:55.611Z,10.50
2022-08-29T23:10:04.994Z,11.20
2022-08-29T23:14:14.868Z,10.63
2022-08-29T23:18:25.910Z,7.20
2022-08-29T23:22:35.111Z,9.33
2022-08-29T23:26:45.269Z,7.33
2022-08-29T23:30:54.885Z,11.97
2022-08-29T23:35:06.051Z,10.10
2022-08-29T23:39:15.493Z,9.70
2022-08-29T23:43:24.910Z,9.47
2022-08-29T23:47:34.052Z,9.93
2022-08-29T23:51:45.752Z,12.10
2022-08-29T23:55:54.951Z,8.13
